sensor_id;sensor_type;location;lat;lon;timestamp;P1;durP1;ratioP1;P2;durP2;ratioP2
75090;SDS011;63674;48.048;8.306;2024-03-17T00:01:20;18.02;;;1.50;;
75090;SDS011;63674;48.048;8.306;2024-03-17T00:03:47;12.18;;;1.20;;
75090;SDS011;63674;48.048;8.306;2024-03-17T00:06:13;11.75;;;1.65;;
75090;SDS011;63674;48.048;8.306;2024-03-17T00:08:44;12.13;;;1.37;;
75090;SDS011;63674;48.048;8.306;2024-03-17T00:11:10;14.55;;;1.60;;
75090;SDS011;63674;48.048;8.306;2024-03-17T00:13:38;5.45;;;1.17;;
75090;SDS011;63674;48.048;8.306;2024-03-17T00:16:04;5.05;;;1.27;;
75090;SDS011;63674;48.048;8.306;2024-03-17T00:18:32;10.68;;;1.58;;
75090;SDS011;63674;48.048;8.306;2024-03-17T00:21:01;7.37;;;1.43;;
75090;SDS011;63674;48.048;8.306;2024-03-17T00:23:28;9.73;;;1.38;;
75090;SDS011;63674;48.048;8.306;2024-03-17T00:25:57;14.93;;;1.73;;
75090;SDS011;63674;48.048;8.306;2024-03-17T00:28:24;6.15;;;1.10;;
75090;SDS011;63674;48.048;8.306;2024-03-17T00:30:51;6.88;;;1.55;;
75090;SDS011;63674;48.048;8.306;2024-03-17T00:33:18;11.70;;;1.50;;
75090;SDS011;63674;48.048;8.306;2024-03-17T00:35:45;9.98;;;1.80;;
75090;SDS011;63674;48.048;8.306;2024-03-17T00:38:12;38.45;;;2.63;;
75090;SDS011;63674;48.048;8.306;2024-03-17T00:40:39;17.42;;;1.95;;
75090;SDS011;63674;48.048;8.306;2024-03-17T00:43:08;10.30;;;2.20;;
75090;SDS011;63674;48.048;8.306;2024-03-17T00:45:37;7.73;;;2.00;;
75090;SDS011;63674;48.048;8.306;2024-03-17T00:48:05;11.40;;;2.50;;
75090;SDS011;63674;48.048;8.306;2024-03-17T00:50:32;14.80;;;2.83;;
75090;SDS011;63674;48.048;8.306;2024-03-17T00:52:59;10.18;;;2.83;;
75090;SDS011;63674;48.048;8.306;2024-03-17T00:55:28;9.57;;;2.78;;
75090;SDS011;63674;48.048;8.306;2024-03-17T00:57:56;45.87;;;3.53;;
75090;SDS011;63674;48.048;8.306;2024-03-17T01:00:24;54.15;;;2.60;;
75090;SDS011;63674;48.048;8.306;2024-03-17T01:02:51;30.08;;;2.67;;
75090;SDS011;63674;48.048;8.306;2024-03-17T01:05:18;13.40;;;2.22;;
75090;SDS011;63674;48.048;8.306;2024-03-17T01:07:45;6.30;;;2.30;;
75090;SDS011;63674;48.048;8.306;2024-03-17T01:10:13;5.50;;;1.83;;
75090;SDS011;63674;48.048;8.306;2024-03-17T01:12:41;16.42;;;2.30;;
75090;SDS011;63674;48.048;8.306;2024-03-17T01:15:07;19.58;;;2.45;;
75090;SDS011;63674;48.048;8.306;2024-03-17T01:17:38;57.00;;;3.08;;
75090;SDS011;63674;48.048;8.306;2024-03-17T01:20:05;9.02;;;2.20;;
75090;SDS011;63674;48.048;8.306;2024-03-17T01:22:34;17.27;;;2.20;;
75090;SDS011;63674;48.048;8.306;2024-03-17T01:25:01;19.55;;;2.10;;
75090;SDS011;63674;48.048;8.306;2024-03-17T01:27:28;12.02;;;2.60;;
75090;SDS011;63674;48.048;8.306;2024-03-17T01:29:55;22.08;;;2.75;;
75090;SDS011;63674;48.048;8.306;2024-03-17T01:32:22;17.60;;;2.35;;
75090;SDS011;63674;48.048;8.306;2024-03-17T01:34:51;17.73;;;2.30;;
75090;SDS011;63674;48.048;8.306;2024-03-17T01:37:19;13.32;;;2.28;;
75090;SDS011;63674;48.048;8.306;2024-03-17T01:39:45;8.80;;;2.58;;
75090;SDS011;63674;48.048;8.306;2024-03-17T01:42:14;23.02;;;2.50;;
75090;SDS011;63674;48.048;8.306;2024-03-17T01:44:41;19.13;;;2.40;;
75090;SDS011;63674;48.048;8.306;2024-03-17T01:47:08;23.87;;;2.53;;
75090;SDS011;63674;48.048;8.306;2024-03-17T01:49:35;27.77;;;2.50;;
75090;SDS011;63674;48.048;8.306;2024-03-17T01:52:04;14.68;;;2.00;;
75090;SDS011;63674;48.048;8.306;2024-03-17T01:54:31;24.13;;;2.20;;
75090;SDS011;63674;48.048;8.306;2024-03-17T01:56:59;18.38;;;2.33;;
75090;SDS011;63674;48.048;8.306;2024-03-17T01:59:26;31.23;;;1.97;;
75090;SDS011;63674;48.048;8.306;2024-03-17T02:01:54;24.33;;;2.30;;
75090;SDS011;63674;48.048;8.306;2024-03-17T02:04:20;8.65;;;2.08;;
75090;SDS011;63674;48.048;8.306;2024-03-17T02:06:47;37.65;;;2.40;;
75090;SDS011;63674;48.048;8.306;2024-03-17T02:09:15;35.97;;;2.70;;
75090;SDS011;63674;48.048;8.306;2024-03-17T02:12:02;36.90;;;2.77;;
75090;SDS011;63674;48.048;8.306;2024-03-17T02:14:49;17.00;;;2.17;;
75090;SDS011;63674;48.048;8.306;2024-03-17T02:17:34;15.57;;;2.85;;
75090;SDS011;63674;48.048;8.306;2024-03-17T02:20:20;12.18;;;2.00;;
75090;SDS011;63674;48.048;8.306;2024-03-17T02:23:10;26.25;;;2.45;;
75090;SDS011;63674;48.048;8.306;2024-03-17T02:25:56;5.70;;;1.77;;
75090;SDS011;63674;48.048;8.306;2024-03-17T02:28:42;13.30;;;2.20;;
75090;SDS011;63674;48.048;8.306;2024-03-17T02:31:30;11.02;;;2.10;;
75090;SDS011;63674;48.048;8.306;2024-03-17T02:34:15;5.45;;;2.05;;
75090;SDS011;63674;48.048;8.306;2024-03-17T02:37:01;5.57;;;2.10;;
75090;SDS011;63674;48.048;8.306;2024-03-17T02:39:49;5.57;;;1.83;;
75090;SDS011;63674;48.048;8.306;2024-03-17T02:42:35;5.68;;;2.10;;
75090;SDS011;63674;48.048;8.306;2024-03-17T02:45:22;6.38;;;1.90;;
75090;SDS011;63674;48.048;8.306;2024-03-17T02:48:08;4.82;;;1.80;;
75090;SDS011;63674;48.048;8.306;2024-03-17T02:50:54;5.68;;;1.92;;
75090;SDS011;63674;48.048;8.306;2024-03-17T02:53:40;5.57;;;1.90;;
75090;SDS011;63674;48.048;8.306;2024-03-17T02:56:29;15.90;;;1.80;;
75090;SDS011;63674;48.048;8.306;2024-03-17T02:59:15;8.23;;;1.90;;
75090;SDS011;63674;48.048;8.306;2024-03-17T03:02:01;11.05;;;1.65;;
75090;SDS011;63674;48.048;8.306;2024-03-17T03:04:48;4.97;;;1.23;;
75090;SDS011;63674;48.048;8.306;2024-03-17T03:07:34;3.90;;;1.10;;
75090;SDS011;63674;48.048;8.306;2024-03-17T03:10:21;4.35;;;1.20;;
75090;SDS011;63674;48.048;8.306;2024-03-17T03:13:08;3.90;;;1.20;;
75090;SDS011;63674;48.048;8.306;2024-03-17T03:15:55;3.63;;;1.13;;
75090;SDS011;63674;48.048;8.306;2024-03-17T03:18:41;4.05;;;1.38;;
75090;SDS011;63674;48.048;8.306;2024-03-17T03:21:28;3.97;;;1.23;;
75090;SDS011;63674;48.048;8.306;2024-03-17T03:24:15;4.72;;;1.58;;
75090;SDS011;63674;48.048;8.306;2024-03-17T03:27:01;4.65;;;1.63;;
75090;SDS011;63674;48.048;8.306;2024-03-17T03:29:50;4.40;;;1.67;;
75090;SDS011;63674;48.048;8.306;2024-03-17T03:32:36;4.50;;;1.50;;
75090;SDS011;63674;48.048;8.306;2024-03-17T03:35:22;4.40;;;1.50;;
75090;SDS011;63674;48.048;8.306;2024-03-17T03:38:10;4.00;;;1.15;;
75090;SDS011;63674;48.048;8.306;2024-03-17T03:40:57;3.95;;;1.23;;
75090;SDS011;63674;48.048;8.306;2024-03-17T03:43:44;4.60;;;1.65;;
75090;SDS011;63674;48.048;8.306;2024-03-17T03:46:32;4.97;;;1.40;;
75090;SDS011;63674;48.048;8.306;2024-03-17T03:49:19;4.27;;;1.40;;
75090;SDS011;63674;48.048;8.306;2024-03-17T03:52:05;4.35;;;1.20;;
75090;SDS011;63674;48.048;8.306;2024-03-17T03:54:51;4.43;;;1.50;;
75090;SDS011;63674;48.048;8.306;2024-03-17T03:57:38;4.18;;;1.10;;
75090;SDS011;63674;48.048;8.306;2024-03-17T04:00:24;5.47;;;1.15;;
75090;SDS011;63674;48.048;8.306;2024-03-17T04:03:15;3.90;;;1.10;;
75090;SDS011;63674;48.048;8.306;2024-03-17T04:06:02;4.85;;;1.27;;
75090;SDS011;63674;48.048;8.306;2024-03-17T04:08:49;5.55;;;1.40;;
75090;SDS011;63674;48.048;8.306;2024-03-17T04:11:35;4.00;;;1.00;;
75090;SDS011;63674;48.048;8.306;2024-03-17T04:14:22;4.45;;;1.20;;
75090;SDS011;63674;48.048;8.306;2024-03-17T04:17:08;6.00;;;1.17;;
75090;SDS011;63674;48.048;8.306;2024-03-17T04:19:56;3.67;;;1.10;;
75090;SDS011;63674;48.048;8.306;2024-03-17T04:22:43;5.28;;;1.75;;
75090;SDS011;63674;48.048;8.306;2024-03-17T04:25:29;4.00;;;1.35;;
75090;SDS011;63674;48.048;8.306;2024-03-17T04:28:15;4.68;;;1.25;;
75090;SDS011;63674;48.048;8.306;2024-03-17T04:31:02;6.13;;;1.10;;
75090;SDS011;63674;48.048;8.306;2024-03-17T04:33:49;4.07;;;1.00;;
75090;SDS011;63674;48.048;8.306;2024-03-17T04:36:18;3.58;;;1.00;;
75090;SDS011;63674;48.048;8.306;2024-03-17T04:38:46;3.97;;;0.95;;
75090;SDS011;63674;48.048;8.306;2024-03-17T04:41:14;3.75;;;0.90;;
75090;SDS011;63674;48.048;8.306;2024-03-17T04:43:42;3.53;;;0.90;;
75090;SDS011;63674;48.048;8.306;2024-03-17T04:46:10;4.15;;;1.00;;
75090;SDS011;63674;48.048;8.306;2024-03-17T04:48:39;3.42;;;1.00;;
75090;SDS011;63674;48.048;8.306;2024-03-17T04:51:07;3.97;;;1.27;;
75090;SDS011;63674;48.048;8.306;2024-03-17T04:53:35;3.80;;;1.13;;
75090;SDS011;63674;48.048;8.306;2024-03-17T04:56:03;4.00;;;0.97;;
75090;SDS011;63674;48.048;8.306;2024-03-17T04:58:32;3.60;;;1.00;;
75090;SDS011;63674;48.048;8.306;2024-03-17T05:01:04;5.20;;;1.20;;
75090;SDS011;63674;48.048;8.306;2024-03-17T05:03:32;4.03;;;1.20;;
75090;SDS011;63674;48.048;8.306;2024-03-17T05:06:00;4.63;;;1.05;;
75090;SDS011;63674;48.048;8.306;2024-03-17T05:08:28;3.43;;;0.90;;
75090;SDS011;63674;48.048;8.306;2024-03-17T05:10:58;3.38;;;0.95;;
75090;SDS011;63674;48.048;8.306;2024-03-17T05:13:26;6.65;;;1.23;;
75090;SDS011;63674;48.048;8.306;2024-03-17T05:15:54;5.18;;;1.10;;
75090;SDS011;63674;48.048;8.306;2024-03-17T05:18:22;5.00;;;1.30;;
75090;SDS011;63674;48.048;8.306;2024-03-17T05:20:57;26.77;;;2.17;;
75090;SDS011;63674;48.048;8.306;2024-03-17T05:23:26;29.50;;;2.13;;
75090;SDS011;63674;48.048;8.306;2024-03-17T05:25:54;33.90;;;2.33;;
75090;SDS011;63674;48.048;8.306;2024-03-17T05:28:25;22.90;;;2.17;;
75090;SDS011;63674;48.048;8.306;2024-03-17T05:30:55;30.10;;;1.98;;
75090;SDS011;63674;48.048;8.306;2024-03-17T05:33:23;159.83;;;5.03;;
75090;SDS011;63674;48.048;8.306;2024-03-17T05:35:53;134.68;;;4.25;;
75090;SDS011;63674;48.048;8.306;2024-03-17T05:38:23;42.15;;;2.47;;
75090;SDS011;63674;48.048;8.306;2024-03-17T05:40:53;153.50;;;4.55;;
75090;SDS011;63674;48.048;8.306;2024-03-17T05:43:23;156.68;;;4.72;;
75090;SDS011;63674;48.048;8.306;2024-03-17T05:45:51;119.97;;;3.80;;
75090;SDS011;63674;48.048;8.306;2024-03-17T05:48:19;154.15;;;4.80;;
75090;SDS011;63674;48.048;8.306;2024-03-17T05:50:46;149.60;;;3.85;;
75090;SDS011;63674;48.048;8.306;2024-03-17T05:53:14;61.85;;;2.22;;
75090;SDS011;63674;48.048;8.306;2024-03-17T05:55:43;115.50;;;4.35;;
75090;SDS011;63674;48.048;8.306;2024-03-17T05:58:11;19.73;;;1.50;;
75090;SDS011;63674;48.048;8.306;2024-03-17T06:00:40;84.47;;;2.70;;
75090;SDS011;63674;48.048;8.306;2024-03-17T06:03:08;24.98;;;1.40;;
75090;SDS011;63674;48.048;8.306;2024-03-17T06:05:37;24.77;;;1.70;;
75090;SDS011;63674;48.048;8.306;2024-03-17T06:08:06;16.35;;;1.40;;
75090;SDS011;63674;48.048;8.306;2024-03-17T06:10:37;27.73;;;1.50;;
75090;SDS011;63674;48.048;8.306;2024-03-17T06:13:09;3.88;;;0.90;;
75090;SDS011;63674;48.048;8.306;2024-03-17T06:15:40;32.85;;;1.73;;
75090;SDS011;63674;48.048;8.306;2024-03-17T06:18:07;7.95;;;1.10;;
75090;SDS011;63674;48.048;8.306;2024-03-17T06:20:39;3.83;;;0.90;;
75090;SDS011;63674;48.048;8.306;2024-03-17T06:23:08;3.80;;;0.70;;
75090;SDS011;63674;48.048;8.306;2024-03-17T06:25:40;23.63;;;1.90;;
75090;SDS011;63674;48.048;8.306;2024-03-17T06:28:08;23.85;;;2.00;;
75090;SDS011;63674;48.048;8.306;2024-03-17T06:30:40;53.60;;;2.67;;
75090;SDS011;63674;48.048;8.306;2024-03-17T06:33:10;55.15;;;3.30;;
75090;SDS011;63674;48.048;8.306;2024-03-17T06:35:39;39.70;;;2.73;;
75090;SDS011;63674;48.048;8.306;2024-03-17T06:38:06;34.75;;;2.28;;
75090;SDS011;63674;48.048;8.306;2024-03-17T06:40:35;13.15;;;2.28;;
75090;SDS011;63674;48.048;8.306;2024-03-17T06:43:03;8.07;;;2.15;;
75090;SDS011;63674;48.048;8.306;2024-03-17T06:45:31;6.93;;;2.05;;
75090;SDS011;63674;48.048;8.306;2024-03-17T06:48:00;9.70;;;1.90;;
75090;SDS011;63674;48.048;8.306;2024-03-17T06:50:28;13.00;;;2.10;;
75090;SDS011;63674;48.048;8.306;2024-03-17T06:52:55;9.80;;;2.17;;
75090;SDS011;63674;48.048;8.306;2024-03-17T06:55:23;38.90;;;2.50;;
75090;SDS011;63674;48.048;8.306;2024-03-17T06:57:51;34.17;;;2.45;;
75090;SDS011;63674;48.048;8.306;2024-03-17T07:00:18;31.33;;;2.07;;
75090;SDS011;63674;48.048;8.306;2024-03-17T07:02:50;41.55;;;2.92;;
75090;SDS011;63674;48.048;8.306;2024-03-17T07:05:19;44.13;;;2.75;;
75090;SDS011;63674;48.048;8.306;2024-03-17T07:07:47;97.05;;;4.35;;
75090;SDS011;63674;48.048;8.306;2024-03-17T07:10:14;84.72;;;4.03;;
75090;SDS011;63674;48.048;8.306;2024-03-17T07:12:42;61.10;;;3.63;;
75090;SDS011;63674;48.048;8.306;2024-03-17T07:15:09;22.63;;;1.60;;
75090;SDS011;63674;48.048;8.306;2024-03-17T07:17:37;21.40;;;3.00;;
75090;SDS011;63674;48.048;8.306;2024-03-17T07:20:05;21.48;;;2.80;;
75090;SDS011;63674;48.048;8.306;2024-03-17T07:22:36;44.05;;;3.17;;
75090;SDS011;63674;48.048;8.306;2024-03-17T07:25:03;88.70;;;3.73;;
75090;SDS011;63674;48.048;8.306;2024-03-17T07:27:31;34.47;;;2.53;;
75090;SDS011;63674;48.048;8.306;2024-03-17T07:29:59;66.43;;;4.55;;
75090;SDS011;63674;48.048;8.306;2024-03-17T07:32:27;54.80;;;4.97;;
75090;SDS011;63674;48.048;8.306;2024-03-17T07:34:54;54.10;;;4.45;;
75090;SDS011;63674;48.048;8.306;2024-03-17T07:37:22;24.73;;;3.10;;
75090;SDS011;63674;48.048;8.306;2024-03-17T07:39:51;37.97;;;3.13;;
75090;SDS011;63674;48.048;8.306;2024-03-17T07:42:18;45.40;;;3.10;;
75090;SDS011;63674;48.048;8.306;2024-03-17T07:44:46;62.05;;;3.22;;
75090;SDS011;63674;48.048;8.306;2024-03-17T07:47:13;46.40;;;4.10;;
75090;SDS011;63674;48.048;8.306;2024-03-17T07:49:41;17.80;;;3.17;;
75090;SDS011;63674;48.048;8.306;2024-03-17T07:52:12;14.27;;;3.10;;
75090;SDS011;63674;48.048;8.306;2024-03-17T07:54:40;7.72;;;3.28;;
75090;SDS011;63674;48.048;8.306;2024-03-17T07:57:09;38.45;;;3.00;;
75090;SDS011;63674;48.048;8.306;2024-03-17T07:59:37;10.65;;;2.28;;
75090;SDS011;63674;48.048;8.306;2024-03-17T08:02:04;29.87;;;2.83;;
75090;SDS011;63674;48.048;8.306;2024-03-17T08:04:33;25.77;;;3.05;;
75090;SDS011;63674;48.048;8.306;2024-03-17T08:07:03;32.90;;;5.53;;
75090;SDS011;63674;48.048;8.306;2024-03-17T08:09:30;41.22;;;5.60;;
75090;SDS011;63674;48.048;8.306;2024-03-17T08:11:58;27.05;;;5.85;;
75090;SDS011;63674;48.048;8.306;2024-03-17T08:14:26;26.37;;;6.40;;
75090;SDS011;63674;48.048;8.306;2024-03-17T08:16:54;46.88;;;10.98;;
75090;SDS011;63674;48.048;8.306;2024-03-17T08:19:22;34.28;;;7.82;;
75090;SDS011;63674;48.048;8.306;2024-03-17T08:21:49;46.13;;;6.93;;
75090;SDS011;63674;48.048;8.306;2024-03-17T08:24:17;21.73;;;6.72;;
75090;SDS011;63674;48.048;8.306;2024-03-17T08:26:44;12.23;;;5.30;;
75090;SDS011;63674;48.048;8.306;2024-03-17T08:29:12;19.80;;;5.38;;
75090;SDS011;63674;48.048;8.306;2024-03-17T08:31:41;10.50;;;3.80;;
75090;SDS011;63674;48.048;8.306;2024-03-17T08:34:10;8.50;;;3.80;;
75090;SDS011;63674;48.048;8.306;2024-03-17T08:36:38;6.47;;;3.17;;
75090;SDS011;63674;48.048;8.306;2024-03-17T08:39:06;8.07;;;2.90;;
75090;SDS011;63674;48.048;8.306;2024-03-17T08:41:34;7.72;;;2.53;;
75090;SDS011;63674;48.048;8.306;2024-03-17T08:44:02;5.72;;;2.50;;
75090;SDS011;63674;48.048;8.306;2024-03-17T08:46:31;5.95;;;2.30;;
75090;SDS011;63674;48.048;8.306;2024-03-17T08:49:00;9.32;;;2.92;;
75090;SDS011;63674;48.048;8.306;2024-03-17T08:51:27;8.27;;;3.23;;
75090;SDS011;63674;48.048;8.306;2024-03-17T08:53:55;8.25;;;3.85;;
75090;SDS011;63674;48.048;8.306;2024-03-17T08:56:23;7.47;;;3.50;;
75090;SDS011;63674;48.048;8.306;2024-03-17T08:58:50;10.43;;;4.07;;
75090;SDS011;63674;48.048;8.306;2024-03-17T09:01:18;9.75;;;3.72;;
75090;SDS011;63674;48.048;8.306;2024-03-17T09:03:45;10.07;;;4.33;;
75090;SDS011;63674;48.048;8.306;2024-03-17T09:06:16;9.60;;;3.85;;
75090;SDS011;63674;48.048;8.306;2024-03-17T09:08:45;9.35;;;4.57;;
75090;SDS011;63674;48.048;8.306;2024-03-17T09:11:13;8.18;;;3.45;;
75090;SDS011;63674;48.048;8.306;2024-03-17T09:13:41;6.35;;;2.20;;
75090;SDS011;63674;48.048;8.306;2024-03-17T09:16:09;6.47;;;2.00;;
75090;SDS011;63674;48.048;8.306;2024-03-17T09:18:39;8.80;;;3.60;;
75090;SDS011;63674;48.048;8.306;2024-03-17T09:21:07;8.18;;;2.80;;
75090;SDS011;63674;48.048;8.306;2024-03-17T09:23:37;7.85;;;2.60;;
75090;SDS011;63674;48.048;8.306;2024-03-17T09:26:05;8.32;;;3.70;;
75090;SDS011;63674;48.048;8.306;2024-03-17T09:28:35;7.07;;;2.93;;
75090;SDS011;63674;48.048;8.306;2024-03-17T09:31:03;8.35;;;2.53;;
75090;SDS011;63674;48.048;8.306;2024-03-17T09:33:33;7.47;;;1.90;;
75090;SDS011;63674;48.048;8.306;2024-03-17T09:36:02;7.35;;;1.52;;
75090;SDS011;63674;48.048;8.306;2024-03-17T09:38:31;6.72;;;1.88;;
75090;SDS011;63674;48.048;8.306;2024-03-17T09:41:01;8.37;;;1.60;;
75090;SDS011;63674;48.048;8.306;2024-03-17T09:43:30;4.80;;;0.98;;
75090;SDS011;63674;48.048;8.306;2024-03-17T09:46:01;4.43;;;1.40;;
75090;SDS011;63674;48.048;8.306;2024-03-17T09:48:30;8.05;;;1.40;;
75090;SDS011;63674;48.048;8.306;2024-03-17T09:50:58;8.45;;;1.10;;
75090;SDS011;63674;48.048;8.306;2024-03-17T09:53:28;5.90;;;1.20;;
75090;SDS011;63674;48.048;8.306;2024-03-17T09:55:58;6.88;;;2.30;;
75090;SDS011;63674;48.048;8.306;2024-03-17T09:58:30;6.60;;;1.30;;
75090;SDS011;63674;48.048;8.306;2024-03-17T10:00:57;8.30;;;1.13;;
75090;SDS011;63674;48.048;8.306;2024-03-17T10:03:39;6.65;;;1.73;;
75090;SDS011;63674;48.048;8.306;2024-03-17T10:06:08;7.43;;;1.30;;
75090;SDS011;63674;48.048;8.306;2024-03-17T10:08:45;3.72;;;0.80;;
75090;SDS011;63674;48.048;8.306;2024-03-17T10:11:17;5.68;;;1.20;;
75090;SDS011;63674;48.048;8.306;2024-03-17T10:13:46;7.63;;;1.38;;
75090;SDS011;63674;48.048;8.306;2024-03-17T10:16:26;5.97;;;0.90;;
75090;SDS011;63674;48.048;8.306;2024-03-17T10:19:05;8.53;;;1.17;;
75090;SDS011;63674;48.048;8.306;2024-03-17T10:21:35;5.60;;;1.45;;
75090;SDS011;63674;48.048;8.306;2024-03-17T10:24:05;9.05;;;2.40;;
75090;SDS011;63674;48.048;8.306;2024-03-17T10:26:40;7.63;;;1.20;;
75090;SDS011;63674;48.048;8.306;2024-03-17T10:29:22;5.60;;;1.00;;
75090;SDS011;63674;48.048;8.306;2024-03-17T10:31:52;7.63;;;1.53;;
75090;SDS011;63674;48.048;8.306;2024-03-17T10:34:21;7.30;;;1.20;;
75090;SDS011;63674;48.048;8.306;2024-03-17T10:36:51;7.72;;;1.52;;
75090;SDS011;63674;48.048;8.306;2024-03-17T10:39:23;5.72;;;0.90;;
75090;SDS011;63674;48.048;8.306;2024-03-17T10:41:59;7.38;;;1.05;;
75090;SDS011;63674;48.048;8.306;2024-03-17T10:44:27;4.93;;;0.80;;
75090;SDS011;63674;48.048;8.306;2024-03-17T10:46:56;5.53;;;0.90;;
75090;SDS011;63674;48.048;8.306;2024-03-17T10:49:27;8.05;;;1.20;;
75090;SDS011;63674;48.048;8.306;2024-03-17T10:51:58;7.88;;;0.93;;
75090;SDS011;63674;48.048;8.306;2024-03-17T10:54:28;5.57;;;0.90;;
75090;SDS011;63674;48.048;8.306;2024-03-17T10:56:56;6.23;;;0.90;;
75090;SDS011;63674;48.048;8.306;2024-03-17T10:59:34;5.32;;;0.90;;
75090;SDS011;63674;48.048;8.306;2024-03-17T11:02:12;6.75;;;0.90;;
75090;SDS011;63674;48.048;8.306;2024-03-17T11:04:50;5.88;;;0.90;;
75090;SDS011;63674;48.048;8.306;2024-03-17T11:07:20;6.90;;;1.60;;
75090;SDS011;63674;48.048;8.306;2024-03-17T11:09:49;8.80;;;1.27;;
75090;SDS011;63674;48.048;8.306;2024-03-17T11:12:40;6.38;;;1.23;;
75090;SDS011;63674;48.048;8.306;2024-03-17T11:21:06;7.05;;;1.10;;
75090;SDS011;63674;48.048;8.306;2024-03-17T11:23:57;9.70;;;2.60;;
75090;SDS011;63674;48.048;8.306;2024-03-17T11:26:28;6.20;;;1.20;;
75090;SDS011;63674;48.048;8.306;2024-03-17T11:29:00;8.18;;;1.20;;
75090;SDS011;63674;48.048;8.306;2024-03-17T11:31:41;6.03;;;1.00;;
75090;SDS011;63674;48.048;8.306;2024-03-17T11:34:26;11.15;;;2.47;;
75090;SDS011;63674;48.048;8.306;2024-03-17T11:37:03;7.73;;;2.00;;
75090;SDS011;63674;48.048;8.306;2024-03-17T11:39:49;6.70;;;1.30;;
75090;SDS011;63674;48.048;8.306;2024-03-17T11:42:25;8.13;;;2.05;;
75090;SDS011;63674;48.048;8.306;2024-03-17T11:45:01;12.50;;;2.63;;
75090;SDS011;63674;48.048;8.306;2024-03-17T11:47:33;10.32;;;3.10;;
75090;SDS011;63674;48.048;8.306;2024-03-17T11:50:05;7.73;;;1.40;;
75090;SDS011;63674;48.048;8.306;2024-03-17T11:52:37;9.20;;;1.80;;
75090;SDS011;63674;48.048;8.306;2024-03-17T11:55:06;6.90;;;1.60;;
75090;SDS011;63674;48.048;8.306;2024-03-17T11:57:43;7.70;;;1.60;;
75090;SDS011;63674;48.048;8.306;2024-03-17T12:00:23;5.15;;;1.20;;
75090;SDS011;63674;48.048;8.306;2024-03-17T12:02:51;4.70;;;0.90;;
75090;SDS011;63674;48.048;8.306;2024-03-17T12:05:19;4.85;;;1.00;;
75090;SDS011;63674;48.048;8.306;2024-03-17T12:07:46;6.60;;;1.05;;
75090;SDS011;63674;48.048;8.306;2024-03-17T12:10:15;7.47;;;1.50;;
75090;SDS011;63674;48.048;8.306;2024-03-17T12:12:46;5.35;;;1.42;;
75090;SDS011;63674;48.048;8.306;2024-03-17T12:15:16;5.57;;;1.00;;
75090;SDS011;63674;48.048;8.306;2024-03-17T12:17:46;4.55;;;1.10;;
75090;SDS011;63674;48.048;8.306;2024-03-17T12:20:19;6.70;;;1.20;;
75090;SDS011;63674;48.048;8.306;2024-03-17T12:22:46;4.15;;;0.98;;
75090;SDS011;63674;48.048;8.306;2024-03-17T12:25:16;6.20;;;1.10;;
75090;SDS011;63674;48.048;8.306;2024-03-17T12:27:45;6.80;;;1.00;;
75090;SDS011;63674;48.048;8.306;2024-03-17T12:30:14;6.32;;;0.80;;
75090;SDS011;63674;48.048;8.306;2024-03-17T12:32:41;6.10;;;1.25;;
75090;SDS011;63674;48.048;8.306;2024-03-17T12:35:14;6.63;;;1.55;;
75090;SDS011;63674;48.048;8.306;2024-03-17T12:37:43;7.28;;;1.20;;
75090;SDS011;63674;48.048;8.306;2024-03-17T12:40:18;9.77;;;1.87;;
75090;SDS011;63674;48.048;8.306;2024-03-17T12:42:49;6.70;;;1.27;;
75090;SDS011;63674;48.048;8.306;2024-03-17T12:45:21;11.20;;;1.60;;
75090;SDS011;63674;48.048;8.306;2024-03-17T12:47:48;5.90;;;1.13;;
75090;SDS011;63674;48.048;8.306;2024-03-17T12:50:19;5.88;;;1.15;;
75090;SDS011;63674;48.048;8.306;2024-03-17T12:52:52;4.67;;;0.80;;
75090;SDS011;63674;48.048;8.306;2024-03-17T12:55:22;5.00;;;0.80;;
75090;SDS011;63674;48.048;8.306;2024-03-17T12:58:07;4.38;;;0.93;;
75090;SDS011;63674;48.048;8.306;2024-03-17T13:00:57;5.80;;;0.80;;
75090;SDS011;63674;48.048;8.306;2024-03-17T13:03:26;4.40;;;0.70;;
75090;SDS011;63674;48.048;8.306;2024-03-17T13:06:01;5.60;;;0.80;;
75090;SDS011;63674;48.048;8.306;2024-03-17T13:08:31;5.20;;;0.60;;
75090;SDS011;63674;48.048;8.306;2024-03-17T13:10:59;5.03;;;0.65;;
75090;SDS011;63674;48.048;8.306;2024-03-17T13:13:29;6.60;;;0.70;;
75090;SDS011;63674;48.048;8.306;2024-03-17T13:15:57;7.13;;;0.90;;
75090;SDS011;63674;48.048;8.306;2024-03-17T13:18:25;3.70;;;0.97;;
75090;SDS011;63674;48.048;8.306;2024-03-17T13:20:52;5.43;;;0.80;;
75090;SDS011;63674;48.048;8.306;2024-03-17T13:23:24;6.72;;;1.70;;
75090;SDS011;63674;48.048;8.306;2024-03-17T13:25:51;7.65;;;0.88;;
75090;SDS011;63674;48.048;8.306;2024-03-17T13:28:18;6.72;;;1.05;;
75090;SDS011;63674;48.048;8.306;2024-03-17T13:30:46;6.00;;;0.70;;
75090;SDS011;63674;48.048;8.306;2024-03-17T13:33:13;4.53;;;0.85;;
75090;SDS011;63674;48.048;8.306;2024-03-17T13:35:41;4.28;;;0.95;;
75090;SDS011;63674;48.048;8.306;2024-03-17T13:38:09;6.60;;;1.10;;
75090;SDS011;63674;48.048;8.306;2024-03-17T13:40:39;5.45;;;1.23;;
75090;SDS011;63674;48.048;8.306;2024-03-17T13:43:08;5.00;;;1.00;;
75090;SDS011;63674;48.048;8.306;2024-03-17T13:45:37;3.97;;;0.77;;
75090;SDS011;63674;48.048;8.306;2024-03-17T13:48:06;5.80;;;1.00;;
75090;SDS011;63674;48.048;8.306;2024-03-17T13:50:36;7.18;;;1.08;;
75090;SDS011;63674;48.048;8.306;2024-03-17T13:53:04;4.47;;;0.88;;
75090;SDS011;63674;48.048;8.306;2024-03-17T13:55:32;6.60;;;0.80;;
75090;SDS011;63674;48.048;8.306;2024-03-17T13:58:02;6.53;;;0.80;;
75090;SDS011;63674;48.048;8.306;2024-03-17T14:00:30;6.53;;;1.08;;
75090;SDS011;63674;48.048;8.306;2024-03-17T14:03:01;7.38;;;1.20;;
75090;SDS011;63674;48.048;8.306;2024-03-17T14:05:29;6.35;;;0.93;;
75090;SDS011;63674;48.048;8.306;2024-03-17T14:07:59;6.57;;;0.90;;
75090;SDS011;63674;48.048;8.306;2024-03-17T14:10:27;4.82;;;1.00;;
75090;SDS011;63674;48.048;8.306;2024-03-17T14:12:55;5.45;;;1.23;;
75090;SDS011;63674;48.048;8.306;2024-03-17T14:15:24;5.47;;;0.98;;
75090;SDS011;63674;48.048;8.306;2024-03-17T14:17:52;7.35;;;1.20;;
75090;SDS011;63674;48.048;8.306;2024-03-17T14:20:19;4.70;;;1.00;;
75090;SDS011;63674;48.048;8.306;2024-03-17T14:22:47;7.38;;;1.30;;
75090;SDS011;63674;48.048;8.306;2024-03-17T14:25:18;10.27;;;1.60;;
75090;SDS011;63674;48.048;8.306;2024-03-17T14:27:47;6.68;;;1.30;;
75090;SDS011;63674;48.048;8.306;2024-03-17T14:30:15;5.13;;;1.00;;
75090;SDS011;63674;48.048;8.306;2024-03-17T14:32:46;6.53;;;1.17;;
75090;SDS011;63674;48.048;8.306;2024-03-17T14:35:14;4.95;;;0.77;;
75090;SDS011;63674;48.048;8.306;2024-03-17T14:37:43;5.40;;;1.05;;
75090;SDS011;63674;48.048;8.306;2024-03-17T14:40:13;5.75;;;0.82;;
75090;SDS011;63674;48.048;8.306;2024-03-17T14:42:47;6.25;;;1.00;;
75090;SDS011;63674;48.048;8.306;2024-03-17T14:45:15;6.73;;;0.90;;
75090;SDS011;63674;48.048;8.306;2024-03-17T14:47:43;6.47;;;1.00;;
75090;SDS011;63674;48.048;8.306;2024-03-17T14:50:12;6.82;;;1.83;;
75090;SDS011;63674;48.048;8.306;2024-03-17T14:52:41;4.43;;;0.93;;
75090;SDS011;63674;48.048;8.306;2024-03-17T14:55:09;4.38;;;0.88;;
75090;SDS011;63674;48.048;8.306;2024-03-17T14:57:37;5.77;;;0.93;;
75090;SDS011;63674;48.048;8.306;2024-03-17T15:00:07;5.93;;;1.33;;
75090;SDS011;63674;48.048;8.306;2024-03-17T15:02:41;5.20;;;1.02;;
75090;SDS011;63674;48.048;8.306;2024-03-17T15:05:09;8.38;;;1.10;;
75090;SDS011;63674;48.048;8.306;2024-03-17T15:07:39;5.22;;;1.10;;
75090;SDS011;63674;48.048;8.306;2024-03-17T15:10:07;3.97;;;1.07;;
75090;SDS011;63674;48.048;8.306;2024-03-17T15:12:35;5.53;;;0.80;;
75090;SDS011;63674;48.048;8.306;2024-03-17T15:15:03;4.93;;;1.00;;
75090;SDS011;63674;48.048;8.306;2024-03-17T15:17:33;6.22;;;1.00;;